sensor_id;sensor_type;location;lat;lon;timestamp;temperature;humidity
18932;DHT22;9598;50.954;3.112;2023-04-07T00:00:32;10.80;99.90
18932;DHT22;9598;50.954;3.112;2023-04-07T00:05:35;10.90;99.90
18932;DHT22;9598;50.954;3.112;2023-04-07T00:10:38;10.90;99.90
18932;DHT22;9598;50.954;3.112;2023-04-07T00:15:40;10.90;99.90
18932;DHT22;9598;50.954;3.112;2023-04-07T00:20:42;10.90;99.90
18932;DHT22;9598;50.954;3.112;2023-04-07T00:25:48;10.90;99.90
18932;DHT22;9598;50.954;3.112;2023-04-07T00:30:50;10.90;99.90
18932;DHT22;9598;50.954;3.112;2023-04-07T00:35:52;10.90;99.90
18932;DHT22;9598;50.954;3.112;2023-04-07T00:40:58;10.90;99.90
18932;DHT22;9598;50.954;3.112;2023-04-07T00:46:00;10.90;99.90
18932;DHT22;9598;50.954;3.112;2023-04-07T00:51:03;10.90;99.90
18932;DHT22;9598;50.954;3.112;2023-04-07T00:56:07;10.80;99.90
18932;DHT22;9598;50.954;3.112;2023-04-07T01:01:14;10.70;99.90
18932;DHT22;9598;50.954;3.112;2023-04-07T01:06:19;10.60;99.90
18932;DHT22;9598;50.954;3.112;2023-04-07T01:11:34;10.60;99.90
18932;DHT22;9598;50.954;3.112;2023-04-07T01:16:41;10.60;99.90
18932;DHT22;9598;50.954;3.112;2023-04-07T01:21:48;10.50;99.90
18932;DHT22;9598;50.954;3.112;2023-04-07T01:26:55;10.50;99.90
18932;DHT22;9598;50.954;3.112;2023-04-07T01:32:04;10.50;99.90
18932;DHT22;9598;50.954;3.112;2023-04-07T01:37:08;10.50;99.90
18932;DHT22;9598;50.954;3.112;2023-04-07T01:42:10;10.50;99.90
18932;DHT22;9598;50.954;3.112;2023-04-07T01:47:15;10.50;99.90
18932;DHT22;9598;50.954;3.112;2023-04-07T01:52:17;10.60;99.90
18932;DHT22;9598;50.954;3.112;2023-04-07T01:57:20;10.60;99.90
18932;DHT22;9598;50.954;3.112;2023-04-07T02:02:29;10.60;99.90
18932;DHT22;9598;50.954;3.112;2023-04-07T02:07:35;10.50;99.90
18932;DHT22;9598;50.954;3.112;2023-04-07T02:12:40;10.50;99.90
18932;DHT22;9598;50.954;3.112;2023-04-07T02:17:52;10.50;99.90
18932;DHT22;9598;50.954;3.112;2023-04-07T02:22:54;10.50;99.90
18932;DHT22;9598;50.954;3.112;2023-04-07T02:27:59;10.50;99.90
18932;DHT22;9598;50.954;3.112;2023-04-07T02:33:02;10.50;99.90
18932;DHT22;9598;50.954;3.112;2023-04-07T02:38:11;10.40;99.90
18932;DHT22;9598;50.954;3.112;2023-04-07T02:43:13;10.40;99.90
18932;DHT22;9598;50.954;3.112;2023-04-07T02:48:18;10.30;99.90
18932;DHT22;9598;50.954;3.112;2023-04-07T02:53:20;10.30;99.90
18932;DHT22;9598;50.954;3.112;2023-04-07T02:58:22;10.30;99.90
18932;DHT22;9598;50.954;3.112;2023-04-07T03:03:26;10.30;99.90
18932;DHT22;9598;50.954;3.112;2023-04-07T03:08:36;10.20;99.90
18932;DHT22;9598;50.954;3.112;2023-04-07T03:13:39;10.20;99.90
18932;DHT22;9598;50.954;3.112;2023-04-07T03:18:43;10.20;99.90
18932;DHT22;9598;50.954;3.112;2023-04-07T03:23:46;10.20;99.90
18932;DHT22;9598;50.954;3.112;2023-04-07T03:28:50;10.20;99.90
18932;DHT22;9598;50.954;3.112;2023-04-07T03:33:55;10.10;99.90
18932;DHT22;9598;50.954;3.112;2023-04-07T03:38:57;10.10;99.90
18932;DHT22;9598;50.954;3.112;2023-04-07T03:43:59;10.00;99.90
18932;DHT22;9598;50.954;3.112;2023-04-07T03:49:04;9.90;99.90
18932;DHT22;9598;50.954;3.112;2023-04-07T03:54:07;9.90;99.90
18932;DHT22;9598;50.954;3.112;2023-04-07T03:59:14;9.80;99.90
18932;DHT22;9598;50.954;3.112;2023-04-07T04:04:37;9.80;99.90
18932;DHT22;9598;50.954;3.112;2023-04-07T04:09:40;9.80;99.90
18932;DHT22;9598;50.954;3.112;2023-04-07T04:14:42;9.80;99.90
18932;DHT22;9598;50.954;3.112;2023-04-07T04:19:47;9.80;99.90
18932;DHT22;9598;50.954;3.112;2023-04-07T04:24:59;9.70;99.90
18932;DHT22;9598;50.954;3.112;2023-04-07T04:30:03;9.60;99.90
18932;DHT22;9598;50.954;3.112;2023-04-07T04:35:12;9.50;99.90
18932;DHT22;9598;50.954;3.112;2023-04-07T04:40:24;9.50;99.90
18932;DHT22;9598;50.954;3.112;2023-04-07T04:45:30;9.50;99.90
18932;DHT22;9598;50.954;3.112;2023-04-07T04:50:34;9.40;99.90
18932;DHT22;9598;50.954;3.112;2023-04-07T04:55:41;9.30;99.90
18932;DHT22;9598;50.954;3.112;2023-04-07T05:00:53;9.20;99.90
18932;DHT22;9598;50.954;3.112;2023-04-07T05:06:05;9.10;99.90
18932;DHT22;9598;50.954;3.112;2023-04-07T05:11:08;9.00;99.90
18932;DHT22;9598;50.954;3.112;2023-04-07T05:16:10;9.00;99.90
18932;DHT22;9598;50.954;3.112;2023-04-07T05:21:14;9.00;99.90
18932;DHT22;9598;50.954;3.112;2023-04-07T05:26:16;8.90;99.90
18932;DHT22;9598;50.954;3.112;2023-04-07T05:31:20;8.90;99.90
18932;DHT22;9598;50.954;3.112;2023-04-07T05:36:27;8.80;99.90
18932;DHT22;9598;50.954;3.112;2023-04-07T05:41:31;8.80;99.90
18932;DHT22;9598;50.954;3.112;2023-04-07T05:46:35;8.70;99.90
18932;DHT22;9598;50.954;3.112;2023-04-07T05:51:39;8.80;99.90
18932;DHT22;9598;50.954;3.112;2023-04-07T05:56:45;8.80;99.90
18932;DHT22;9598;50.954;3.112;2023-04-07T06:01:47;8.80;99.90
18932;DHT22;9598;50.954;3.112;2023-04-07T06:06:51;8.90;99.90
18932;DHT22;9598;50.954;3.112;2023-04-07T06:11:55;8.90;99.90
18932;DHT22;9598;50.954;3.112;2023-04-07T06:16:58;9.00;99.90
18932;DHT22;9598;50.954;3.112;2023-04-07T06:22:01;9.00;99.90
18932;DHT22;9598;50.954;3.112;2023-04-07T06:27:05;9.00;99.90
18932;DHT22;9598;50.954;3.112;2023-04-07T06:32:07;9.00;99.90
18932;DHT22;9598;50.954;3.112;2023-04-07T06:37:11;9.10;99.90
18932;DHT22;9598;50.954;3.112;2023-04-07T06:42:14;9.10;99.90
18932;DHT22;9598;50.954;3.112;2023-04-07T06:47:24;9.20;99.90
18932;DHT22;9598;50.954;3.112;2023-04-07T06:52:27;9.20;99.90
18932;DHT22;9598;50.954;3.112;2023-04-07T06:57:30;9.30;99.90
18932;DHT22;9598;50.954;3.112;2023-04-07T07:02:32;9.30;99.90
18932;DHT22;9598;50.954;3.112;2023-04-07T07:07:35;9.40;99.90
18932;DHT22;9598;50.954;3.112;2023-04-07T07:12:38;9.50;99.90
18932;DHT22;9598;50.954;3.112;2023-04-07T07:17:40;9.60;99.90
18932;DHT22;9598;50.954;3.112;2023-04-07T07:22:43;9.60;99.90
18932;DHT22;9598;50.954;3.112;2023-04-07T07:27:45;9.70;99.90
18932;DHT22;9598;50.954;3.112;2023-04-07T07:32:52;9.80;99.90
18932;DHT22;9598;50.954;3.112;2023-04-07T07:37:56;9.80;99.90
18932;DHT22;9598;50.954;3.112;2023-04-07T07:42:59;9.90;99.90
18932;DHT22;9598;50.954;3.112;2023-04-07T07:48:01;10.00;99.90
18932;DHT22;9598;50.954;3.112;2023-04-07T07:53:05;10.10;99.90
18932;DHT22;9598;50.954;3.112;2023-04-07T07:58:07;10.10;99.90
18932;DHT22;9598;50.954;3.112;2023-04-07T08:03:09;10.20;99.90
18932;DHT22;9598;50.954;3.112;2023-04-07T08:08:12;10.20;99.90
18932;DHT22;9598;50.954;3.112;2023-04-07T08:13:14;10.30;99.90
18932;DHT22;9598;50.954;3.112;2023-04-07T08:18:16;10.50;99.90
18932;DHT22;9598;50.954;3.112;2023-04-07T08:23:20;10.60;99.90
18932;DHT22;9598;50.954;3.112;2023-04-07T08:28:23;10.80;99.90
18932;DHT22;9598;50.954;3.112;2023-04-07T08:33:25;10.90;99.90
18932;DHT22;9598;50.954;3.112;2023-04-07T08:38:29;10.90;99.90
18932;DHT22;9598;50.954;3.112;2023-04-07T08:43:33;10.90;99.90
18932;DHT22;9598;50.954;3.112;2023-04-07T08:48:37;10.80;99.90
18932;DHT22;9598;50.954;3.112;2023-04-07T08:53:47;10.80;99.90
18932;DHT22;9598;50.954;3.112;2023-04-07T08:58:50;11.00;99.90
18932;DHT22;9598;50.954;3.112;2023-04-07T09:03:53;11.10;99.90
18932;DHT22;9598;50.954;3.112;2023-04-07T09:08:59;11.10;99.90
18932;DHT22;9598;50.954;3.112;2023-04-07T09:14:01;11.10;99.90
18932;DHT22;9598;50.954;3.112;2023-04-07T09:19:03;11.20;99.90
18932;DHT22;9598;50.954;3.112;2023-04-07T09:24:20;11.20;99.90
18932;DHT22;9598;50.954;3.112;2023-04-07T09:29:22;11.20;99.90
18932;DHT22;9598;50.954;3.112;2023-04-07T09:34:26;11.20;99.90
18932;DHT22;9598;50.954;3.112;2023-04-07T09:39:30;11.10;99.90
18932;DHT22;9598;50.954;3.112;2023-04-07T09:44:39;11.10;99.90
18932;DHT22;9598;50.954;3.112;2023-04-07T09:49:49;11.10;99.90
18932;DHT22;9598;50.954;3.112;2023-04-07T09:54:55;11.20;99.90
18932;DHT22;9598;50.954;3.112;2023-04-07T09:59:59;11.30;99.90
18932;DHT22;9598;50.954;3.112;2023-04-07T10:05:02;11.30;99.90
18932;DHT22;9598;50.954;3.112;2023-04-07T10:10:07;11.30;99.90
18932;DHT22;9598;50.954;3.112;2023-04-07T10:15:11;11.30;99.90
18932;DHT22;9598;50.954;3.112;2023-04-07T10:20:16;11.40;99.90
18932;DHT22;9598;50.954;3.112;2023-04-07T10:25:23;11.60;99.90
18932;DHT22;9598;50.954;3.112;2023-04-07T10:30:29;11.80;99.90
18932;DHT22;9598;50.954;3.112;2023-04-07T10:36:03;11.80;99.90
18932;DHT22;9598;50.954;3.112;2023-04-07T10:41:32;11.80;99.90
18932;DHT22;9598;50.954;3.112;2023-04-07T10:47:02;11.80;99.90
18932;DHT22;9598;50.954;3.112;2023-04-07T10:52:21;11.90;99.90
18932;DHT22;9598;50.954;3.112;2023-04-07T10:57:25;12.10;99.90
18932;DHT22;9598;50.954;3.112;2023-04-07T11:02:34;12.10;99.90
18932;DHT22;9598;50.954;3.112;2023-04-07T11:07:49;12.20;99.90
18932;DHT22;9598;50.954;3.112;2023-04-07T11:13:04;12.20;99.90
18932;DHT22;9598;50.954;3.112;2023-04-07T11:18:12;12.10;99.90
18932;DHT22;9598;50.954;3.112;2023-04-07T11:23:15;12.10;99.90
18932;DHT22;9598;50.954;3.112;2023-04-07T11:28:19;12.10;99.90
18932;DHT22;9598;50.954;3.112;2023-04-07T11:33:22;12.20;99.90
18932;DHT22;9598;50.954;3.112;2023-04-07T11:38:26;12.30;99.90
18932;DHT22;9598;50.954;3.112;2023-04-07T11:43:30;12.30;99.90
18932;DHT22;9598;50.954;3.112;2023-04-07T11:48:34;12.30;99.90
18932;DHT22;9598;50.954;3.112;2023-04-07T11:53:36;12.30;99.90
18932;DHT22;9598;50.954;3.112;2023-04-07T11:58:47;12.20;99.90
18932;DHT22;9598;50.954;3.112;2023-04-07T12:03:57;12.30;99.90
18932;DHT22;9598;50.954;3.112;2023-04-07T12:08:59;12.30;99.90
18932;DHT22;9598;50.954;3.112;2023-04-07T12:14:03;12.30;99.90
18932;DHT22;9598;50.954;3.112;2023-04-07T12:19:06;12.40;99.90
18932;DHT22;9598;50.954;3.112;2023-04-07T12:24:08;12.30;99.90
18932;DHT22;9598;50.954;3.112;2023-04-07T12:29:12;12.30;99.90
18932;DHT22;9598;50.954;3.112;2023-04-07T12:34:14;12.30;99.90
18932;DHT22;9598;50.954;3.112;2023-04-07T12:39:16;12.40;99.90
18932;DHT22;9598;50.954;3.112;2023-04-07T12:44:20;12.40;99.90
18932;DHT22;9598;50.954;3.112;2023-04-07T12:49:22;12.50;99.90
18932;DHT22;9598;50.954;3.112;2023-04-07T12:54:24;12.50;99.90
18932;DHT22;9598;50.954;3.112;2023-04-07T12:59:27;12.50;99.90
18932;DHT22;9598;50.954;3.112;2023-04-07T13:04:30;12.50;99.90
18932;DHT22;9598;50.954;3.112;2023-04-07T13:09:32;12.40;99.90
18932;DHT22;9598;50.954;3.112;2023-04-07T13:14:35;12.50;99.90
18932;DHT22;9598;50.954;3.112;2023-04-07T13:19:37;12.40;99.90
18932;DHT22;9598;50.954;3.112;2023-04-07T13:24:39;12.40;99.90
18932;DHT22;9598;50.954;3.112;2023-04-07T13:29:43;12.50;99.90
18932;DHT22;9598;50.954;3.112;2023-04-07T13:34:45;12.50;99.90
18932;DHT22;9598;50.954;3.112;2023-04-07T13:39:47;12.40;99.90
18932;DHT22;9598;50.954;3.112;2023-04-07T13:44:51;12.30;99.90
18932;DHT22;9598;50.954;3.112;2023-04-07T13:49:54;12.20;99.90
18932;DHT22;9598;50.954;3.112;2023-04-07T13:54:56;12.10;99.90
18932;DHT22;9598;50.954;3.112;2023-04-07T13:59:59;12.10;99.90
18932;DHT22;9598;50.954;3.112;2023-04-07T14:05:02;12.00;99.90
18932;DHT22;9598;50.954;3.112;2023-04-07T14:10:04;12.00;99.90
18932;DHT22;9598;50.954;3.112;2023-04-07T14:15:09;11.90;99.90
18932;DHT22;9598;50.954;3.112;2023-04-07T14:20:11;11.80;99.90
18932;DHT22;9598;50.954;3.112;2023-04-07T14:25:13;11.60;99.90
18932;DHT22;9598;50.954;3.112;2023-04-07T14:30:17;11.60;99.90
18932;DHT22;9598;50.954;3.112;2023-04-07T14:35:19;11.50;99.90
18932;DHT22;9598;50.954;3.112;2023-04-07T14:40:22;11.50;99.90
18932;DHT22;9598;50.954;3.112;2023-04-07T14:45:25;11.60;99.90
18932;DHT22;9598;50.954;3.112;2023-04-07T14:50:27;11.60;99.90
18932;DHT22;9598;50.954;3.112;2023-04-07T14:55:30;11.70;99.90
18932;DHT22;9598;50.954;3.112;2023-04-07T15:00:33;11.80;99.90
18932;DHT22;9598;50.954;3.112;2023-04-07T15:05:35;11.80;99.90
18932;DHT22;9598;50.954;3.112;2023-04-07T15:10:38;11.80;99.90
18932;DHT22;9598;50.954;3.112;2023-04-07T15:15:42;11.80;99.90
18932;DHT22;9598;50.954;3.112;2023-04-07T15:20:44;11.80;99.90
18932;DHT22;9598;50.954;3.112;2023-04-07T15:25:46;11.70;99.90
18932;DHT22;9598;50.954;3.112;2023-04-07T15:30:52;11.70;99.90
18932;DHT22;9598;50.954;3.112;2023-04-07T15:35:55;11.90;99.90
18932;DHT22;9598;50.954;3.112;2023-04-07T15:40:57;11.80;99.90
18932;DHT22;9598;50.954;3.112;2023-04-07T15:46:00;11.60;99.90
18932;DHT22;9598;50.954;3.112;2023-04-07T15:51:03;11.60;99.90
18932;DHT22;9598;50.954;3.112;2023-04-07T15:56:05;11.60;99.90
18932;DHT22;9598;50.954;3.112;2023-04-07T16:01:09;11.60;99.90
18932;DHT22;9598;50.954;3.112;2023-04-07T16:06:11;11.70;99.90
18932;DHT22;9598;50.954;3.112;2023-04-07T16:11:13;11.60;99.90
18932;DHT22;9598;50.954;3.112;2023-04-07T16:16:17;11.60;99.90
18932;DHT22;9598;50.954;3.112;2023-04-07T16:21:19;11.70;99.90
18932;DHT22;9598;50.954;3.112;2023-04-07T16:26:21;11.70;99.90
18932;DHT22;9598;50.954;3.112;2023-04-07T16:31:25;11.70;99.90
18932;DHT22;9598;50.954;3.112;2023-04-07T16:36:27;11.70;99.90
18932;DHT22;9598;50.954;3.112;2023-04-07T16:41:30;11.70;99.90
18932;DHT22;9598;50.954;3.112;2023-04-07T16:46:34;11.70;99.90
18932;DHT22;9598;50.954;3.112;2023-04-07T16:51:36;11.70;99.90
18932;DHT22;9598;50.954;3.112;2023-04-07T16:56:38;11.70;99.90
18932;DHT22;9598;50.954;3.112;2023-04-07T17:01:41;11.60;99.90
18932;DHT22;9598;50.954;3.112;2023-04-07T17:06:44;11.60;99.90
18932;DHT22;9598;50.954;3.112;2023-04-07T17:11:46;11.50;99.90
18932;DHT22;9598;50.954;3.112;2023-04-07T17:16:49;11.50;99.90
18932;DHT22;9598;50.954;3.112;2023-04-07T17:21:51;11.50;99.90
18932;DHT22;9598;50.954;3.112;2023-04-07T17:26:54;11.50;99.90
18932;DHT22;9598;50.954;3.112;2023-04-07T17:31:57;11.40;99.90
18932;DHT22;9598;50.954;3.112;2023-04-07T17:36:59;11.40;99.90
18932;DHT22;9598;50.954;3.112;2023-04-07T17:42:01;11.30;99.90
18932;DHT22;9598;50.954;3.112;2023-04-07T17:47:05;11.30;99.90
18932;DHT22;9598;50.954;3.112;2023-04-07T17:52:07;11.30;99.90
18932;DHT22;9598;50.954;3.112;2023-04-07T17:57:09;11.30;99.90
18932;DHT22;9598;50.954;3.112;2023-04-07T18:02:12;11.30;99.90
18932;DHT22;9598;50.954;3.112;2023-04-07T18:07:14;11.20;99.90
18932;DHT22;9598;50.954;3.112;2023-04-07T18:12:17;11.20;99.90
18932;DHT22;9598;50.954;3.112;2023-04-07T18:17:21;11.20;99.90
18932;DHT22;9598;50.954;3.112;2023-04-07T18:22:25;11.20;99.90
18932;DHT22;9598;50.954;3.112;2023-04-07T18:27:27;11.20;99.90
18932;DHT22;9598;50.954;3.112;2023-04-07T18:32:31;11.20;99.90
18932;DHT22;9598;50.954;3.112;2023-04-07T18:37:33;11.20;99.90
18932;DHT22;9598;50.954;3.112;2023-04-07T18:42:36;11.10;99.90
18932;DHT22;9598;50.954;3.112;2023-04-07T18:47:39;11.10;99.90
18932;DHT22;9598;50.954;3.112;2023-04-07T18:52:41;11.10;99.90
18932;DHT22;9598;50.954;3.112;2023-04-07T18:57:43;11.10;99.90
18932;DHT22;9598;50.954;3.112;2023-04-07T19:02:47;11.00;99.90
18932;DHT22;9598;50.954;3.112;2023-04-07T19:07:49;11.00;99.90
18932;DHT22;9598;50.954;3.112;2023-04-07T19:12:51;11.00;99.90
18932;DHT22;9598;50.954;3.112;2023-04-07T19:17:54;11.00;99.90
18932;DHT22;9598;50.954;3.112;2023-04-07T19:22:56;10.90;99.90
18932;DHT22;9598;50.954;3.112;2023-04-07T19:27:58;10.90;99.90
18932;DHT22;9598;50.954;3.112;2023-04-07T19:33:02;10.90;99.90
18932;DHT22;9598;50.954;3.112;2023-04-07T19:38:04;10.90;99.90
18932;DHT22;9598;50.954;3.112;2023-04-07T19:43:07;10.90;99.90
18932;DHT22;9598;50.954;3.112;2023-04-07T19:53:34;10.80;99.90
18932;DHT22;9598;50.954;3.112;2023-04-07T19:58:36;10.80;99.90
18932;DHT22;9598;50.954;3.112;2023-04-07T20:03:38;10.70;99.90
18932;DHT22;9598;50.954;3.112;2023-04-07T20:08:43;10.70;99.90
18932;DHT22;9598;50.954;3.112;2023-04-07T20:13:46;10.70;99.90
18932;DHT22;9598;50.954;3.112;2023-04-07T20:18:50;10.60;99.90
18932;DHT22;9598;50.954;3.112;2023-04-07T20:23:53;10.60;99.90
18932;DHT22;9598;50.954;3.112;2023-04-07T20:28:56;10.60;99.90
18932;DHT22;9598;50.954;3.112;2023-04-07T20:33:58;10.60;99.90
18932;DHT22;9598;50.954;3.112;2023-04-07T20:39:01;10.60;99.90
18932;DHT22;9598;50.954;3.112;2023-04-07T20:44:04;10.60;99.90
18932;DHT22;9598;50.954;3.112;2023-04-07T20:49:06;10.60;99.90
18932;DHT22;9598;50.954;3.112;2023-04-07T20:54:09;10.60;99.90
18932;DHT22;9598;50.954;3.112;2023-04-07T20:59:12;10.60;99.90
18932;DHT22;9598;50.954;3.112;2023-04-07T21:04:14;10.70;99.90
18932;DHT22;9598;50.954;3.112;2023-04-07T21:09:18;10.60;99.90
18932;DHT22;9598;50.954;3.112;2023-04-07T21:14:20;10.60;99.90
18932;DHT22;9598;50.954;3.112;2023-04-07T21:19:22;10.60;99.90
18932;DHT22;9598;50.954;3.112;2023-04-07T21:24:25;10.60;99.90
18932;DHT22;9598;50.954;3.112;2023-04-07T21:29:29;10.60;99.90
18932;DHT22;9598;50.954;3.112;2023-04-07T21:34:32;10.60;99.90
18932;DHT22;9598;50.954;3.112;2023-04-07T21:39:35;10.60;99.90
18932;DHT22;9598;50.954;3.112;2023-04-07T21:44:37;10.50;99.90
18932;DHT22;9598;50.954;3.112;2023-04-07T21:49:39;10.50;99.90
18932;DHT22;9598;50.954;3.112;2023-04-07T21:54:43;10.50;99.90
18932;DHT22;9598;50.954;3.112;2023-04-07T21:59:45;10.50;99.90
18932;DHT22;9598;50.954;3.112;2023-04-07T22:04:47;10.40;99.90
18932;DHT22;9598;50.954;3.112;2023-04-07T22:09:50;10.40;99.90
18932;DHT22;9598;50.954;3.112;2023-04-07T22:14:52;10.40;99.90
18932;DHT22;9598;50.954;3.112;2023-04-07T22:19:55;10.40;99.90
18932;DHT22;9598;50.954;3.112;2023-04-07T22:24:59;10.40;99.90
18932;DHT22;9598;50.954;3.112;2023-04-07T22:30:01;10.40;99.90
18932;DHT22;9598;50.954;3.112;2023-04-07T22:35:04;10.30;99.90
18932;DHT22;9598;50.954;3.112;2023-04-07T22:40:08;10.30;99.90
18932;DHT22;9598;50.954;3.112;2023-04-07T22:45:11;10.30;99.90
18932;DHT22;9598;50.954;3.112;2023-04-07T22:50:13;10.30;99.90
18932;DHT22;9598;50.954;3.112;2023-04-07T22:55:17;10.30;99.90
18932;DHT22;9598;50.954;3.112;2023-04-07T23:00:19;10.30;99.90
18932;DHT22;9598;50.954;3.112;2023-04-07T23:05:21;10.20;99.90
18932;DHT22;9598;50.954;3.112;2023-04-07T23:10:25;10.20;99.90
18932;DHT22;9598;50.954;3.112;2023-04-07T23:15:27;10.20;99.90
18932;DHT22;9598;50.954;3.112;2023-04-07T23:20:29;10.20;99.90
18932;DHT22;9598;50.954;3.112;2023-04-07T23:25:32;10.30;99.90
18932;DHT22;9598;50.954;3.112;2023-04-07T23:30:34;10.20;99.90
18932;DHT22;9598;50.954;3.112;2023-04-07T23:35:37;10.20;99.90
18932;DHT22;9598;50.954;3.112;2023-04-07T23:40:40;10.20;99.90
18932;DHT22;9598;50.954;3.112;2023-04-07T23:45:42;10.20;99.90
18932;DHT22;9598;50.954;3.112;2023-04-07T23:50:47;10.20;99.90
18932;DHT22;9598;50.954;3.112;2023-04-07T23:55:51;10.10;99.90
